x

Muskegon, Mi (mkgm4) Weather Station

12:50am - Thu 28th May 2015 All times are CDT. -5 hours from GMT.

  • Wind
    8mph, 9mph gusts
  • Air Temp 50°f
  • Sea Pressure 1021.6mb
  • Muskegon, Mi
  • Muskegon, Mi

More Historic Weather Station data

Upgrade to MSW Pro to gain access to the past 30 days of data for over 8000 Wavebouys and Weather Stations around the globe.

Join Pro

Comparision Forecast

View Surf forecast
   
Thu 05/28 12:50am 8 9 mph 1021.6mb 50f
12:40am 8 9 mph 1021.3mb 50f
12:30am 8 9 mph 1021mb 50f
12:20am 8 9 mph 1021mb 50f
12:10am 8 9 mph 1021.1mb 51f
12:00am 8 9 mph 1021mb 51f
Wed 05/27 11:50pm 7 9 mph 1021mb 51f
11:40pm 8 9 mph 1020.8mb 50f
11:30pm 8 9 mph 1020.7mb 50f
11:20pm 9
mph
1020.5mb 51f
11:10pm 9
mph
1020.5mb 51f
11:00pm 9
mph
1020.3mb 51f
10:40pm 10 11 mph 1019.9mb 51f
10:30pm 14 15 mph 1019.7mb 51f
10:20pm 11 14 mph 1020.1mb 51f
10:10pm 10
mph
1020.2mb 51f
10:00pm 9
mph
1020.2mb 51f
9:50pm 9 10 mph 1020.2mb 50f
9:40pm 7 9 mph 1020.2mb 51f
9:30pm 9
mph
1020.1mb 51f
9:20pm 8
mph
1019.9mb 52f
9:10pm 5 6 mph 1019.8mb 51f
9:00pm 3 5 mph 1019.6mb 51f
8:50pm 5 6 mph 1019.5mb 51f
8:40pm 5
mph
1019.3mb 51f
8:30pm 5
mph
1019.3mb 51f
8:20pm 3 5 mph 1019.2mb 51f
8:10pm 1 2 mph 1019.2mb 51f
8:00pm 1 2 mph 1019.2mb 51f
7:50pm 1
mph
1019.2mb 51f
7:40pm 3
mph
1019.2mb 51f
7:30pm 3 5 mph 1018.8mb 51f
7:20pm 5
mph
1018.6mb 51f
7:10pm 3
mph
1018.5mb 51f
7:00pm 3 5 mph 1018.1mb 51f
6:50pm 2 3 mph 1018mb 51f
6:40pm 1 2 mph 1017.8mb 51f
6:30pm 2 3 mph 1017.7mb 51f
6:20pm 3
mph
1017.7mb 51f
6:10pm 5
mph
1017.6mb 52f
6:00pm 3
mph
1017.5mb 53f
5:20pm 6 7 mph 1017.4mb 53f
5:10pm 6 7 mph 1017.4mb 52f
5:00pm 5 6 mph 1017.6mb 52f
4:40pm 6 7 mph 1017.4mb 52f
4:30pm 7 8 mph 1017.3mb 52f
4:20pm 7 8 mph 1017.1mb 52f
4:10pm 3 5 mph 1017mb 52f
4:00pm 5 6 mph 1016.8mb 51f
3:50pm 8 9 mph 1016.7mb 51f
3:40pm 6 7 mph 1016.7mb 52f
3:30pm 7
mph
1016.6mb 54f
3:20pm 5 6 mph 1016.7mb 53f
3:10pm 7 8 mph 1016.6mb 56f
3:00pm 7 8 mph 1016.4mb 56f
2:50pm 6 7 mph 1016.5mb 54f
2:40pm 10 11 mph 1016.5mb 54f
2:30pm 6 7 mph 1016.3mb 53f
2:20pm 9
mph
1016.1mb 53f
2:10pm 9 10 mph 1016mb 53f
2:00pm 13 16 mph 1015.8mb 53f
1:50pm 17 20 mph 1015.8mb 53f
1:40pm 21 23 mph 1015.7mb 54f
1:30pm 20 21 mph 1015.4mb 54f
1:20pm 16 17 mph 1015.4mb 53f
1:10pm 15 16 mph 1015.5mb 51f
1:00pm 13 15 mph 1015.5mb 51f
12:50pm 11 14 mph 1015.5mb 51f
12:40pm 11 13 mph 1015.5mb 51f
12:30pm 15 16 mph 1015.3mb 51f
12:20pm 15 16 mph 1015.3mb 51f
12:10pm 14 16 mph 1015.1mb 52f
12:00pm 16 17 mph 1015.1mb 52f
11:40am 16 18 mph 1015mb 51f
11:30am 16 18 mph 1014.9mb 51f
11:20am 17 21 mph 1014.8mb 51f
11:10am 17 21 mph 1014.6mb 52f
11:00am 16 18 mph 1014.4mb 52f
10:50am 17 21 mph 1014.3mb 51f
10:40am 17 20 mph 1014.2mb 52f
10:30am 21 23 mph 1014.2mb 51f
10:20am 18 22 mph 1014.3mb 51f
10:10am 18 21 mph 1014.2mb 51f
10:00am 21 23 mph 1014.2mb 51f
9:50am 21 23 mph 1014mb 51f
9:40am 20 23 mph 1013.9mb 51f
9:30am 21 23 mph 1013.8mb 51f
9:20am 22 23 mph 1013.8mb 50f
9:10am 22 24 mph 1013.8mb 51f
9:00am 24 28 mph 1013.5mb 52f
8:50am 21 23 mph 1013.2mb 53f
8:40am 23 25 mph 1013mb 53f
8:30am 22 24 mph 1013.1mb 52f
8:20am 22 24 mph 1012.8mb 53f
8:10am 23 24 mph 1012.8mb 53f
8:00am 22 25 mph 1012.9mb 52f
7:50am 21 23 mph 1012.8mb 52f
7:40am 22 23 mph 1012.7mb 52f
7:30am 20 24 mph 1012.8mb 51f
7:20am 16 18 mph 1012.7mb 51f
7:10am 18 22 mph 1012.7mb 52f
7:00am 16 20 mph 1012.7mb 50f
6:50am 15 17 mph 1012.6mb 50f
6:40am 18 20 mph 1012.3mb 50f
6:30am 16 20 mph 1012.2mb 50f
6:20am 18 21 mph 1012.2mb 51f
6:10am 20 22 mph 1012.3mb 51f
6:00am 22 24 mph 1012mb 51f
5:50am 18 20 mph 1012.2mb 51f
5:40am 17 20 mph 1012.1mb 50f
5:30am 17 21 mph 1012mb 51f
5:20am 20 22 mph 1011.6mb 51f
5:10am 20 22 mph 1011.5mb 52f
5:00am 22 26 mph 1011.5mb 52f
4:50am 20 22 mph 1011.6mb 52f
4:40am 20 22 mph 1011.4mb 52f
4:30am 21 23 mph 1011.3mb 52f
4:20am 18 21 mph 1011.1mb 52f
4:10am 20 22 mph 1011mb 51f
4:00am 18 21 mph 1010.8mb 52f
3:50am 21 23 mph 1010.8mb 52f
3:40am 20 22 mph 1010.6mb 52f
3:30am 20 22 mph 1010.6mb 52f
3:20am 20 22 mph 1010.8mb 52f
3:10am 20 22 mph 1010.6mb 52f
3:00am 18 21 mph 1010.6mb 52f
2:50am 20 21 mph 1010.5mb 53f
2:40am 21 22 mph 1010.3mb 55f
2:30am 30 32 mph 1010.3mb 56f
2:20am 23 28 mph 1010.4mb 54f
2:10am 20 21 mph 1010.4mb 53f
2:00am 20 21 mph 1010.3mb 53f
1:50am 20 22 mph 1010.4mb 53f
1:40am 22 24 mph 1010.2mb 53f
1:30am 24 28 mph 1010.2mb 54f
1:20am 25 28 mph 1010.2mb 54f
1:10am 25 26 mph 1010.2mb 54f
1:00am 24 28 mph 1010.2mb 54f
12:50am 24 25 mph 1010.3mb 53f
12:40am 24 26 mph 1010.4mb 53f
12:30am 22 24 mph 1010.5mb 53f
12:20am 22 24 mph 1010.6mb 53f
12:10am 24 26 mph 1010.6mb 54f
12:00am 24 26 mph 1010.6mb 54f
Tue 05/26 11:50pm 25 26 mph 1010.5mb 54f
11:40pm 26 28 mph 1010.4mb 54f
11:30pm 25 28 mph 1010.5mb 54f
11:20pm 26 28 mph 1010.2mb 54f
11:10pm 25 26 mph 1010.3mb 53f
11:00pm 28 30 mph 1010.2mb 54f
10:50pm 26 29 mph 1010.2mb 55f
10:40pm 26 29 mph 1010.2mb 55f
10:30pm 26 30 mph 1010.2mb 54f
10:20pm 26 29 mph 1010.2mb 55f
10:10pm 25 26 mph 1010.2mb 54f
10:00pm 24 26 mph 1010.1mb 54f
9:50pm 22 24 mph 1010.1mb 54f
9:40pm 21 23 mph 1009.9mb 55f
9:30pm 23 24 mph 1009.7mb 55f
9:20pm 26 28 mph 1009.5mb 55f
9:10pm 23 24 mph 1009.3mb 54f
9:00pm 23 25 mph 1009mb 55f
8:50pm 24 26 mph 1008.9mb 56f
8:40pm 23 25 mph 1008.8mb 56f
8:30pm 23 26 mph 1008.6mb 57f
8:20pm 21 23 mph 1008.8mb 56f
8:10pm 24 28 mph 1008.8mb 56f
8:00pm 24 26 mph 1008.5mb 58f
7:50pm 22 23 mph 1008.4mb 59f
7:40pm 18 20 mph 1008.4mb 58f
7:30pm 17 18 mph 1008.6mb 58f
7:20pm 22 24 mph 1008.7mb 58f
7:10pm 20 24 mph 1008.9mb 58f
7:00pm 22 24 mph 1008.9mb 58f
6:50pm 21 23 mph 1008.8mb 59f
6:40pm 20 23 mph 1009mb 58f
6:30pm 22 24 mph 1008.9mb 59f
6:20pm 24 28 mph 1008.9mb 59f
6:10pm 25 28 mph 1009mb 58f
6:00pm 21 26 mph 1009mb 58f
5:50pm 21 24 mph 1009mb 59f
5:40pm 26 29 mph 1008.9mb 60f
5:30pm 23 24 mph 1008.8mb 58f
5:20pm 17 18 mph 1008.9mb 59f
5:10pm 16 20 mph 1009mb 59f
5:00pm 21 25 mph 1009.1mb 59f
4:50pm 22 23 mph 1009.2mb 59f
4:40pm 20 24 mph 1009.2mb 59f
4:30pm 21 24 mph 1009.2mb 60f
4:20pm 24 29 mph 1009.3mb 60f
4:10pm 24 26 mph 1009.3mb 61f
4:00pm 26 29 mph 1008.8mb 62f
3:50pm 25 28 mph 1009.2mb -
3:40pm 25 28 mph 1009mb -
3:30pm 18 22 mph 1009.2mb -
3:20pm 31 34 mph 1009.9mb -
3:10pm 18 20 mph 1009.2mb -
3:00pm 13 16 mph 1008.3mb 73f
2:50pm 10 15 mph 1008.3mb 74f
2:40pm 5 6 mph 1008.4mb 74f
2:30pm 7 8 mph 1008.9mb 73f
2:20pm 6 8 mph 1009.4mb 67f
2:10pm 11 13 mph 1010mb 66f
2:00pm 11 14 mph 1010.4mb 65f
1:50pm 13 14 mph 1011mb 64f
1:40pm 11 13 mph 1011.3mb 64f
1:30pm 11 15 mph 1011.4mb 63f
1:20pm 10 13 mph 1011.5mb 65f
1:10pm 11 13 mph 1011.3mb 65f
1:00pm 13 14 mph 1011.3mb 66f
12:50pm 11 13 mph 1011.5mb 66f
12:40pm 13 14 mph 1011.8mb 65f
12:30pm 11 14 mph 1011.8mb 66f
12:20pm 13 15 mph 1012mb 67f
12:10pm 9 13 mph 1012.1mb 69f
12:00pm 10 13 mph 1012.6mb 67f
11:50am 14 15 mph 1013mb 67f
11:40am 15 20 mph 1013.2mb 66f
11:30am 20 22 mph 1013.3mb 64f
11:20am 21 23 mph 1013.8mb 63f
11:10am 24 26 mph 1013.7mb 64f
11:00am 22 23 mph 1014mb 63f
10:50am 21
mph
1014.2mb 62f
10:40am 20 21 mph 1014.2mb 61f
10:30am 17 20 mph 1014.6mb 61f
10:20am 15 16 mph 1014.8mb 60f
10:10am 17 18 mph 1015mb 59f
10:00am 17 18 mph 1015.1mb 59f
9:50am 17 20 mph 1015.2mb 59f
9:40am 16 18 mph 1015.5mb 59f
9:30am 17 18 mph 1015.3mb 59f
9:20am 20 21 mph 1015.5mb 59f
9:10am 20 21 mph 1015.8mb 59f
9:00am 18 20 mph 1016.1mb 58f
8:50am 20 21 mph 1016.2mb 59f
8:40am 22 23 mph 1015.8mb 60f
8:30am 22 24 mph 1015.8mb 59f
8:20am 22 24 mph 1015.7mb 59f
8:10am 22 24 mph 1015.7mb 60f
8:00am 23 24 mph 1015.6mb 60f
7:50am 24 25 mph 1015.5mb 60f
7:40am 24 26 mph 1015.4mb 61f
7:30am 24 25 mph 1015.3mb 61f
7:20am 24 25 mph 1015.2mb 60f
7:10am 24
mph
1015.3mb 60f
7:00am 22 23 mph 1015.5mb 60f
6:50am 21 22 mph 1015.5mb 59f
6:40am 21 22 mph 1015.5mb 59f
6:30am 20 21 mph 1015.6mb 58f
6:20am 20
mph
1015.6mb 58f
6:10am 18 21 mph 1015.5mb 58f
6:00am 20 21 mph 1015.6mb 57f
5:50am 18 20 mph 1015.5mb 57f
5:40am 20
mph
1015.2mb 57f
5:30am 18 20 mph 1015.1mb 57f
5:20am 18 21 mph 1015.1mb 57f
5:10am 20 22 mph 1015mb 56f
5:00am 20 21 mph 1015mb 57f
4:50am 18 21 mph 1014.9mb 57f
4:40am 18 21 mph 1014.9mb 57f
4:30am 18 20 mph 1014.9mb 56f
4:20am 20 21 mph 1014.9mb 57f
4:10am 20 21 mph 1014.8mb 57f
4:00am 23 25 mph 1014.5mb 58f
3:50am 22 26 mph 1014.7mb 57f
3:40am 21 22 mph 1014.6mb 56f
3:30am 21 24 mph 1014.7mb 56f
3:20am 21 23 mph 1014.7mb 57f
3:10am 22 24 mph 1014.6mb 57f
3:00am 23 26 mph 1014.5mb 57f
2:50am 22 23 mph 1014.7mb 57f
2:40am 21 22 mph 1014.7mb 57f
2:30am 21 24 mph 1014.7mb 57f
2:20am 22 29 mph 1014.8mb 57f
2:10am 21 25 mph 1014.9mb 57f
2:00am 20
mph
1014.7mb 57f
1:50am 18 21 mph 1014.6mb 58f
1:40am 18 20 mph 1014.6mb 56f
1:30am 17 18 mph 1014.8mb 56f
1:20am 15 16 mph 1014.7mb 56f
1:10am 14 15 mph 1014.8mb 57f
1:00am 15 16 mph 1014.8mb 57f
12:50am 15 16 mph 1014.6mb 56f
12:40am 20 25 mph 1015mb 57f
12:30am 16 17 mph 1014.7mb 57f
12:20am 16 18 mph 1014.9mb 56f
12:10am 14 17 mph 1015mb 56f
12:00am 18 20 mph 1015mb 56f
Mon 05/25 11:50pm 20 21 mph 1015.2mb 56f
11:40pm 18 23 mph 1015.2mb 57f
11:30pm 17 20 mph 1015.2mb 55f
11:20pm 20 22 mph 1015.1mb 56f
11:10pm 16
mph
1015mb 54f
11:00pm 15 16 mph 1014.9mb 54f
10:50pm 15 17 mph 1014.7mb 54f
10:40pm 16 20 mph 1014.8mb 55f
10:30pm 16 17 mph 1014.7mb 55f
10:20pm 17 18 mph 1014.7mb 55f
10:10pm 15 17 mph 1014.7mb 54f
10:00pm 14 15 mph 1014.7mb 54f
9:50pm 14 16 mph 1014.5mb 53f
9:40pm 15 16 mph 1014.2mb 53f
9:30pm 15 16 mph 1014.2mb 53f
9:20pm 14 15 mph 1013.8mb 54f
9:10pm 15 16 mph 1013.9mb 54f
9:00pm 17 18 mph 1013.5mb 56f
8:50pm 20 22 mph 1013.4mb 55f
8:40pm 18 21 mph 1013.2mb 54f
8:30pm 21 22 mph 1013.2mb 54f
8:20pm 22 24 mph 1013.2mb 55f
8:10pm 22 24 mph 1013.2mb 55f
8:00pm 22 23 mph 1013.3mb 55f
7:50pm 20 22 mph 1013.4mb 54f
7:40pm 17 20 mph 1013.5mb 55f
7:30pm 15 16 mph 1013.5mb 54f
7:20pm 16 18 mph 1013.5mb 55f
7:10pm 17 22 mph 1013.4mb 55f
7:00pm 16 18 mph 1013.4mb 56f
6:50pm 15 16 mph 1013.4mb 54f
6:40pm 18 21 mph 1013.3mb 55f
6:30pm 18 20 mph 1013.5mb 55f
6:20pm 20 22 mph 1013.3mb 55f
6:10pm 20 22 mph 1013.3mb 55f
6:00pm 22 23 mph 1013.2mb 55f
5:50pm 22 23 mph 1013.2mb 55f
5:40pm 22 23 mph 1013.5mb 55f
5:30pm 21 23 mph 1013.4mb 54f
5:20pm 22 24 mph 1013.3mb 54f
5:10pm 22 23 mph 1013.2mb 54f
5:00pm 22 25 mph 1013.2mb 54f
4:50pm 23 25 mph 1013.1mb 54f
4:40pm 24 25 mph 1013.1mb 54f
4:30pm 25 28 mph 1012.8mb 55f
4:20pm 23 25 mph 1012.9mb 54f
4:10pm 23 25 mph 1012.9mb 53f
4:00pm 22 28 mph 1012.8mb 54f
3:50pm 22 24 mph 1012.8mb 54f
3:40pm 20 22 mph 1012.6mb 54f
3:30pm 20 21 mph 1012.5mb 55f
3:20pm 22 24 mph 1012.2mb 55f
3:10pm 20 22 mph 1011.9mb 55f
3:00pm 21 24 mph 1012mb 55f
2:50pm 20 22 mph 1012.2mb 54f
2:40pm 18 21 mph 1012.2mb 55f
2:30pm 18 20 mph 1012.1mb 55f
2:20pm 20 21 mph 1012.2mb 55f
2:10pm 21 23 mph 1012mb 55f
2:00pm 22 23 mph 1011.8mb 55f
1:50pm 20 21 mph 1012.2mb 54f
1:40pm 21 23 mph 1012.1mb 54f
1:30pm 18 21 mph 1012.4mb 53f
1:20pm 21 23 mph 1012.6mb 52f
1:10pm 20 22 mph 1012.4mb 53f
1:00pm 18 20 mph 1012.4mb 53f
12:50pm 21 23 mph 1012.6mb 53f
12:40pm 22 23 mph 1012.4mb 54f
12:30pm 22 23 mph 1012.4mb 55f
12:20pm 22 23 mph 1012.5mb 54f
12:10pm 24 26 mph 1012.6mb 55f
12:00pm 25 29 mph 1012.1mb 57f
11:50am 21 23 mph 1011.9mb 57f
11:40am 21 22 mph 1011.9mb 58f
11:30am 22 23 mph 1011.8mb 59f
11:20am 23 24 mph 1011.8mb 59f
11:10am 23 24 mph 1011.8mb 58f
11:00am 18 22 mph 1011.9mb 58f
10:50am 23 26 mph 1011.8mb 59f
10:40am 23 25 mph 1011.6mb 60f
10:30am 22 25 mph 1011.6mb 59f
10:20am 20 22 mph 1011.6mb 58f
10:10am 23 24 mph 1011.9mb 58f
10:00am 25 26 mph 1011.7mb 59f
9:50am 22 23 mph 1011.6mb 59f
9:40am 23 25 mph 1011.9mb 58f
9:30am 21 23 mph 1011.9mb 58f
9:20am 21 22 mph 1011.9mb 57f
9:10am 18 20 mph 1011.9mb 56f
9:00am 18 21 mph 1012mb 58f
8:50am 20 22 mph 1012.1mb 58f
8:40am 22 23 mph 1011.9mb 59f
8:30am 22 23 mph 1011.8mb 59f
8:20am 21 22 mph 1011.8mb 60f
8:10am 22 23 mph 1012mb 59f
8:00am 21 22 mph 1012.2mb 59f
7:50am 18 20 mph 1012.3mb 59f
7:40am 21
mph
1012.3mb 58f
7:30am 21 22 mph 1012.5mb 58f
7:20am 20 21 mph 1012.5mb 58f
7:10am 20 22 mph 1012.5mb 58f
7:00am 20
mph
1012.6mb 58f
6:50am 20 21 mph 1012.5mb 58f
6:40am 21 22 mph 1012.5mb 58f
6:30am 21 22 mph 1012.5mb 58f
6:20am 22
mph
1012.5mb 58f
6:10am 22 23 mph 1012.4mb 59f
6:00am 22 23 mph 1012.3mb 58f
5:50am 22 23 mph 1012.3mb 58f
5:40am 22 23 mph 1012.3mb 59f
5:30am 22 23 mph 1012.3mb 59f
5:20am 23 24 mph 1012.2mb 60f
5:10am 22 23 mph 1012.2mb 60f
5:00am 22 23 mph 1012.2mb 59f
4:50am 20 21 mph 1012.2mb 58f
4:40am 20 21 mph 1012.2mb 59f
4:30am 21 22 mph 1012.2mb 59f
4:20am 22 23 mph 1012mb 59f
4:10am 22
mph
1012.2mb 58f
4:00am 21 22 mph 1012.2mb 57f
3:50am 20 21 mph 1012.2mb 59f
3:40am 21 22 mph 1012.3mb 59f
3:30am 21 22 mph 1012.3mb 59f
3:20am 23 24 mph 1012.5mb 59f
3:10am 23 24 mph 1012.5mb 60f
3:00am 23 24 mph 1012.5mb 59f
2:50am 22 23 mph 1012.8mb 59f
2:40am 23 24 mph 1012.8mb 60f
2:30am 24 25 mph 1012.9mb 59f
2:20am 24
mph
1012.9mb 59f
2:10am 23 25 mph 1013mb 60f
2:00am 25 28 mph 1013mb 60f
1:50am 25 26 mph 1013.1mb 61f
1:40am 26 28 mph 1013.2mb 62f
1:30am 23 24 mph 1013.2mb 64f
1:20am 22 24 mph 1013.3mb 67f
1:10am 11 15 mph 1013.4mb 68f
1:00am 11 18 mph 1013.7mb 67f
12:50am 8 13 mph 1013.9mb 65f
12:40am 9 14 mph 1014mb 64f
12:30am 9 11 mph 1014.1mb 64f
12:20am 11 13 mph 1014.3mb 64f
12:10am 13 15 mph 1014.3mb 64f
12:00am 13 15 mph 1014.3mb 63f
Sun 05/24 11:50pm 13 15 mph 1014.3mb 63f
11:40pm 14 16 mph 1014.3mb 63f
11:30pm 14 16 mph 1014.4mb 62f
11:20pm 14 16 mph 1014.5mb 62f
11:10pm 11 15 mph 1014.7mb 62f
11:00pm 13 16 mph 1014.9mb 62f
10:50pm 14 16 mph 1014.8mb 62f
10:40pm 15 17 mph 1015.4mb 62f
10:30pm 14 16 mph 1015.4mb 62f
10:20pm 13 15 mph 1016mb 61f
10:10pm 20 21 mph 1015.3mb 61f
10:00pm 15 18 mph 1015.3mb 62f
9:50pm 14 18 mph 1015.5mb 61f
9:40pm 15 18 mph 1015.6mb 62f
9:30pm 13 15 mph 1015.7mb 62f
9:20pm 14 16 mph 1016mb 61f
9:10pm 13 15 mph 1016mb 61f
9:00pm 14 17 mph 1016mb 61f
8:40pm 11 14 mph 1016mb 62f
8:30pm 13 15 mph 1016mb 62f
8:20pm 14 16 mph 1016mb 62f
8:10pm 14 16 mph 1016.2mb 62f
8:00pm 15 20 mph 1016.3mb 62f
7:40pm 16 18 mph 1016.5mb 62f
7:30pm 15 18 mph 1016.5mb 62f
7:20pm 15 18 mph 1016.7mb 62f
7:10pm 14 17 mph 1017.1mb 62f
7:00pm 13 16 mph 1017.2mb 62f
6:50pm 11 16 mph 1017.5mb 62f
6:40pm 13 16 mph 1017.5mb 62f
6:30pm 13 15 mph 1017.7mb 62f
6:20pm 13 16 mph 1017.7mb 62f
6:10pm 13 16 mph 1017.7mb 62f
6:00pm 10 16 mph 1018.1mb 62f
5:40pm 13 16 mph 1018.3mb 63f
5:30pm 11 14 mph 1018.3mb 63f
5:20pm 9 13 mph 1018.3mb 64f
5:10pm 10 14 mph 1018.3mb 64f
5:00pm 11 15 mph 1018.3mb 64f
4:50pm 11 14 mph 1018.3mb 64f
4:40pm 13 15 mph 1018.4mb 64f
4:30pm 10 14 mph 1018.9mb 64f
4:20pm 10 14 mph 1018.9mb 64f
4:10pm 9 13 mph 1019mb 64f
4:00pm 10 11 mph 1019.3mb 63f
3:50pm 9 14 mph 1019.4mb 63f
3:40pm 14 17 mph 1019.3mb 63f
3:30pm 10 14 mph 1019.8mb 63f
3:20pm 11 15 mph 1020.3mb 63f
3:10pm 10 14 mph 1020.5mb 63f
3:00pm 9 11 mph 1020.7mb 63f
2:50pm 9 11 mph 1021mb 62f
2:40pm 8 11 mph 1021.1mb 62f
2:30pm 8 11 mph 1021.6mb 61f
2:20pm 8 10 mph 1021.9mb 60f
2:10pm 7 8 mph 1022.2mb 60f
2:00pm 5 6 mph 1022.6mb 60f
1:50pm 3 5 mph 1022.9mb 60f
1:40pm 2
mph
1022.8mb 61f
1:30pm 1 3 mph 1022.8mb 60f
1:20pm 8 9 mph 1023.4mb 60f
1:10pm 9 10 mph 1023.4mb 60f
1:00pm 13 14 mph 1023.4mb 60f
12:50pm 9
mph
1022.9mb 65f
12:40pm 7 8 mph 1022.9mb 64f
12:30pm 8 9 mph 1023.1mb 64f
12:20pm 5 6 mph 1023mb 62f
12:10pm 7
mph
1023.3mb 62f
12:00pm 9 10 mph 1023.3mb 63f
11:50am 8 9 mph 1023.3mb 63f
11:40am 11 13 mph 1023.3mb 63f
11:30am 13 14 mph 1023.3mb 62f
11:20am 16 18 mph 1023.3mb 62f
11:10am 15 16 mph 1023.2mb 65f
11:00am 15
mph
1023.3mb 62f
10:50am 16
mph
1023.3mb 61f
10:40am 18
mph
1023.2mb 64f
10:30am 17 18 mph 1023.3mb 63f
10:20am 18 20 mph 1023.2mb 64f
10:10am 20 21 mph 1023.3mb 63f
10:00am 20 22 mph 1023mb 62f
9:50am 18 20 mph 1023.2mb 61f
9:40am 18 21 mph 1023.1mb 60f
9:30am 18 20 mph 1023.1mb 60f
9:20am 18 20 mph 1022.9mb 62f
9:10am 17 18 mph 1022.7mb 62f
9:00am 18
mph
1022.7mb 63f
8:50am 17 18 mph 1023mb 62f
8:40am 17 18 mph 1022.9mb 63f
8:30am 17 18 mph 1023mb 63f
8:20am 16 17 mph 1023.2mb 62f
8:10am 16 18 mph 1023.2mb 62f
8:00am 16 17 mph 1023.2mb 62f
7:50am 15 16 mph 1023.2mb 62f
7:40am 15 17 mph 1023.3mb 60f
7:30am 17 18 mph 1023.4mb 60f
7:20am 18 20 mph 1023.4mb 60f
7:10am 17 20 mph 1023.4mb 59f
7:00am 18 20 mph 1023.5mb 59f